sensor_id;sensor_type;location;lat;lon;timestamp;pressure;altitude;pressure_sealevel;temperature;humidity
6343;BME280;3204;42.698;23.298;2023-12-20T00:01:16;95260.72;;;1.79;92.82
6343;BME280;3204;42.698;23.298;2023-12-20T00:03:42;95257.00;;;1.80;92.60
6343;BME280;3204;42.698;23.298;2023-12-20T00:06:07;95256.06;;;1.91;92.30
6343;BME280;3204;42.698;23.298;2023-12-20T00:08:33;95256.06;;;1.91;92.67
6343;BME280;3204;42.698;23.298;2023-12-20T00:10:58;95257.88;;;1.85;92.30
6343;BME280;3204;42.698;23.298;2023-12-20T00:13:23;95256.47;;;1.83;92.32
6343;BME280;3204;42.698;23.298;2023-12-20T00:15:49;95245.47;;;1.79;92.83
6343;BME280;3204;42.698;23.298;2023-12-20T00:18:14;95247.91;;;1.81;93.17
6343;BME280;3204;42.698;23.298;2023-12-20T00:20:40;95242.94;;;1.89;92.36
6343;BME280;3204;42.698;23.298;2023-12-20T00:23:05;95236.66;;;1.79;92.71
6343;BME280;3204;42.698;23.298;2023-12-20T00:25:31;95233.66;;;1.75;91.55
6343;BME280;3204;42.698;23.298;2023-12-20T00:27:56;95230.19;;;1.75;92.32
6343;BME280;3204;42.698;23.298;2023-12-20T00:30:21;95233.66;;;1.75;92.13
6343;BME280;3204;42.698;23.298;2023-12-20T00:32:47;95221.88;;;1.71;91.84
6343;BME280;3204;42.698;23.298;2023-12-20T00:35:16;95222.16;;;1.75;92.37
6343;BME280;3204;42.698;23.298;2023-12-20T00:37:42;95222.22;;;1.58;93.26
6343;BME280;3204;42.698;23.298;2023-12-20T00:40:08;95219.63;;;1.85;92.59
6343;BME280;3204;42.698;23.298;2023-12-20T00:42:34;95221.19;;;1.81;92.03
6343;BME280;3204;42.698;23.298;2023-12-20T00:45:00;95217.44;;;1.82;92.17
6343;BME280;3204;42.698;23.298;2023-12-20T00:47:25;95210.97;;;1.78;93.01
6343;BME280;3204;42.698;23.298;2023-12-20T00:49:51;95209.88;;;1.74;92.99
6343;BME280;3204;42.698;23.298;2023-12-20T00:52:16;95206.63;;;1.72;92.42
6343;BME280;3204;42.698;23.298;2023-12-20T00:54:47;95197.09;;;1.59;92.47
6343;BME280;3204;42.698;23.298;2023-12-20T00:57:12;95193.81;;;1.52;93.17
6343;BME280;3204;42.698;23.298;2023-12-20T00:59:37;95204.16;;;1.49;93.24
6343;BME280;3204;42.698;23.298;2023-12-20T01:02:03;95199.63;;;1.49;92.92
6343;BME280;3204;42.698;23.298;2023-12-20T01:04:28;95200.47;;;1.50;93.69
6343;BME280;3204;42.698;23.298;2023-12-20T01:06:54;95198.81;;;1.49;92.99
6343;BME280;3204;42.698;23.298;2023-12-20T01:09:19;95192.28;;;1.40;92.57
6343;BME280;3204;42.698;23.298;2023-12-20T01:11:45;95179.38;;;1.53;92.91
6343;BME280;3204;42.698;23.298;2023-12-20T01:14:13;95187.16;;;1.55;93.22
6343;BME280;3204;42.698;23.298;2023-12-20T01:16:39;95183.97;;;1.58;92.59
6343;BME280;3204;42.698;23.298;2023-12-20T01:19:04;95175.84;;;1.69;93.27
6343;BME280;3204;42.698;23.298;2023-12-20T01:21:29;95178.75;;;1.68;92.37
6343;BME280;3204;42.698;23.298;2023-12-20T01:23:55;95181.00;;;1.76;92.00
6343;BME280;3204;42.698;23.298;2023-12-20T01:26:20;95173.03;;;1.59;92.09
6343;BME280;3204;42.698;23.298;2023-12-20T01:28:46;95167.03;;;1.47;91.95
6343;BME280;3204;42.698;23.298;2023-12-20T01:31:11;95156.34;;;1.47;91.22
6343;BME280;3204;42.698;23.298;2023-12-20T01:33:37;95153.34;;;1.65;91.24
6343;BME280;3204;42.698;23.298;2023-12-20T01:36:03;95160.56;;;1.43;91.74
6343;BME280;3204;42.698;23.298;2023-12-20T01:38:28;95155.50;;;1.25;91.95
6343;BME280;3204;42.698;23.298;2023-12-20T01:40:54;95153.44;;;1.32;92.09
6343;BME280;3204;42.698;23.298;2023-12-20T01:43:19;95143.94;;;1.41;91.94
6343;BME280;3204;42.698;23.298;2023-12-20T01:45:45;95138.84;;;1.40;92.04
6343;BME280;3204;42.698;23.298;2023-12-20T01:48:11;95148.56;;;1.46;91.56
6343;BME280;3204;42.698;23.298;2023-12-20T01:50:37;95137.06;;;1.45;91.66
6343;BME280;3204;42.698;23.298;2023-12-20T01:53:03;95123.31;;;1.37;92.03
6343;BME280;3204;42.698;23.298;2023-12-20T01:55:32;95126.50;;;1.55;92.05
6343;BME280;3204;42.698;23.298;2023-12-20T01:57:59;95128.22;;;1.45;92.18
6343;BME280;3204;42.698;23.298;2023-12-20T02:00:26;95129.97;;;1.34;91.90
6343;BME280;3204;42.698;23.298;2023-12-20T02:02:53;95130.63;;;1.25;92.15
6343;BME280;3204;42.698;23.298;2023-12-20T02:05:21;95119.47;;;1.28;92.80
6343;BME280;3204;42.698;23.298;2023-12-20T02:07:47;95124.13;;;1.37;92.39
6343;BME280;3204;42.698;23.298;2023-12-20T02:10:12;95112.63;;;1.37;92.83
6343;BME280;3204;42.698;23.298;2023-12-20T02:12:38;95105.69;;;1.36;92.24
6343;BME280;3204;42.698;23.298;2023-12-20T02:15:04;95115.84;;;1.39;92.63
6343;BME280;3204;42.698;23.298;2023-12-20T02:17:31;95106.22;;;1.38;91.88
6343;BME280;3204;42.698;23.298;2023-12-20T02:19:56;95104.75;;;1.25;91.53
6343;BME280;3204;42.698;23.298;2023-12-20T02:22:22;95105.16;;;1.17;91.84
6343;BME280;3204;42.698;23.298;2023-12-20T02:24:47;95100.13;;;1.21;92.76
6343;BME280;3204;42.698;23.298;2023-12-20T02:27:12;95098.81;;;1.23;92.57
6343;BME280;3204;42.698;23.298;2023-12-20T02:29:38;95097.03;;;1.29;92.63
6343;BME280;3204;42.698;23.298;2023-12-20T02:32:04;95092.06;;;1.37;92.22
6343;BME280;3204;42.698;23.298;2023-12-20T02:34:29;95090.31;;;1.26;92.10
6343;BME280;3204;42.698;23.298;2023-12-20T02:36:55;95092.19;;;1.26;92.61
6343;BME280;3204;42.698;23.298;2023-12-20T02:39:21;95078.81;;;1.26;92.34
6343;BME280;3204;42.698;23.298;2023-12-20T02:41:47;95081.94;;;1.18;94.41
6343;BME280;3204;42.698;23.298;2023-12-20T02:44:13;95074.19;;;1.16;93.95
6343;BME280;3204;42.698;23.298;2023-12-20T02:46:38;95077.78;;;1.05;95.07
6343;BME280;3204;42.698;23.298;2023-12-20T02:49:03;95066.28;;;1.05;94.86
6343;BME280;3204;42.698;23.298;2023-12-20T02:51:29;95085.13;;;0.98;95.37
6343;BME280;3204;42.698;23.298;2023-12-20T02:53:54;95083.53;;;0.97;95.41
6343;BME280;3204;42.698;23.298;2023-12-20T02:56:19;95077.94;;;0.99;96.28
6343;BME280;3204;42.698;23.298;2023-12-20T02:58:45;95078.56;;;1.06;96.23
6343;BME280;3204;42.698;23.298;2023-12-20T03:01:10;95073.81;;;1.08;95.70
6343;BME280;3204;42.698;23.298;2023-12-20T03:03:35;95074.59;;;1.08;96.34
6343;BME280;3204;42.698;23.298;2023-12-20T03:06:01;95074.22;;;1.00;97.89
6343;BME280;3204;42.698;23.298;2023-12-20T03:08:26;95066.09;;;1.11;97.48
6343;BME280;3204;42.698;23.298;2023-12-20T03:10:52;95074.22;;;1.00;97.45
6343;BME280;3204;42.698;23.298;2023-12-20T03:13:18;95069.19;;;1.03;97.22
6343;BME280;3204;42.698;23.298;2023-12-20T03:15:44;95063.06;;;1.03;97.86
6343;BME280;3204;42.698;23.298;2023-12-20T03:18:09;95064.66;;;1.04;97.20
6343;BME280;3204;42.698;23.298;2023-12-20T03:20:35;95054.34;;;1.12;96.40
6343;BME280;3204;42.698;23.298;2023-12-20T03:23:00;95069.69;;;1.00;96.17
6343;BME280;3204;42.698;23.298;2023-12-20T03:25:26;95058.34;;;1.10;96.49
6343;BME280;3204;42.698;23.298;2023-12-20T03:27:52;95060.31;;;0.98;97.14
6343;BME280;3204;42.698;23.298;2023-12-20T03:30:18;95059.06;;;0.84;97.45
6343;BME280;3204;42.698;23.298;2023-12-20T03:32:44;95048.19;;;0.90;97.56
6343;BME280;3204;42.698;23.298;2023-12-20T03:35:09;95055.16;;;0.91;97.23
6343;BME280;3204;42.698;23.298;2023-12-20T03:37:35;95051.19;;;0.94;97.06
6343;BME280;3204;42.698;23.298;2023-12-20T03:40:01;95052.63;;;1.01;97.35
6343;BME280;3204;42.698;23.298;2023-12-20T03:42:27;95045.22;;;1.08;96.66
6343;BME280;3204;42.698;23.298;2023-12-20T03:44:52;95047.03;;;1.03;96.49
6343;BME280;3204;42.698;23.298;2023-12-20T03:47:17;95047.94;;;1.13;96.37
6343;BME280;3204;42.698;23.298;2023-12-20T03:49:43;95048.75;;;0.92;96.23
6343;BME280;3204;42.698;23.298;2023-12-20T03:52:08;95053.22;;;0.87;97.31
6343;BME280;3204;42.698;23.298;2023-12-20T03:54:35;95040.44;;;0.89;97.93
6343;BME280;3204;42.698;23.298;2023-12-20T03:57:00;95044.66;;;0.85;97.96
6343;BME280;3204;42.698;23.298;2023-12-20T03:59:26;95049.84;;;0.75;98.57
6343;BME280;3204;42.698;23.298;2023-12-20T04:01:51;95045.06;;;0.77;98.28
6343;BME280;3204;42.698;23.298;2023-12-20T04:04:16;95036.59;;;0.80;98.05
6343;BME280;3204;42.698;23.298;2023-12-20T04:06:42;95027.09;;;0.89;97.83
6343;BME280;3204;42.698;23.298;2023-12-20T04:09:08;95025.91;;;0.80;99.02
6343;BME280;3204;42.698;23.298;2023-12-20T04:11:37;95026.81;;;0.90;98.55
6343;BME280;3204;42.698;23.298;2023-12-20T04:14:02;95025.88;;;0.96;97.80
6343;BME280;3204;42.698;23.298;2023-12-20T04:16:28;95022.06;;;0.92;98.21
6343;BME280;3204;42.698;23.298;2023-12-20T04:18:53;95018.97;;;1.00;97.66
6343;BME280;3204;42.698;23.298;2023-12-20T04:21:18;95020.50;;;0.75;98.36
6343;BME280;3204;42.698;23.298;2023-12-20T04:23:44;95012.25;;;0.76;98.47
6343;BME280;3204;42.698;23.298;2023-12-20T04:26:10;95012.25;;;0.76;99.31
6343;BME280;3204;42.698;23.298;2023-12-20T04:28:35;95010.13;;;0.78;99.17
6343;BME280;3204;42.698;23.298;2023-12-20T04:31:01;95013.19;;;0.87;98.61
6343;BME280;3204;42.698;23.298;2023-12-20T04:33:26;95011.88;;;0.89;98.52
6343;BME280;3204;42.698;23.298;2023-12-20T04:35:51;95008.03;;;1.02;99.12
6343;BME280;3204;42.698;23.298;2023-12-20T04:38:17;95004.56;;;1.01;97.86
6343;BME280;3204;42.698;23.298;2023-12-20T04:40:42;95009.03;;;0.96;98.01
6343;BME280;3204;42.698;23.298;2023-12-20T04:43:08;95008.41;;;0.89;98.75
6343;BME280;3204;42.698;23.298;2023-12-20T04:45:34;95003.19;;;0.99;98.40
6343;BME280;3204;42.698;23.298;2023-12-20T04:48:00;95005.63;;;0.79;98.71
6343;BME280;3204;42.698;23.298;2023-12-20T04:50:26;95005.75;;;1.10;99.15
6343;BME280;3204;42.698;23.298;2023-12-20T04:52:51;94998.84;;;1.14;98.31
6343;BME280;3204;42.698;23.298;2023-12-20T04:55:17;94997.50;;;1.12;97.65
6343;BME280;3204;42.698;23.298;2023-12-20T04:57:42;95002.50;;;1.08;97.32
6343;BME280;3204;42.698;23.298;2023-12-20T05:00:08;94990.91;;;0.98;98.04
6343;BME280;3204;42.698;23.298;2023-12-20T05:02:35;94999.03;;;1.08;98.41
6343;BME280;3204;42.698;23.298;2023-12-20T05:05:01;94996.31;;;1.03;98.04
6343;BME280;3204;42.698;23.298;2023-12-20T05:07:26;94998.16;;;1.02;98.42
6343;BME280;3204;42.698;23.298;2023-12-20T05:09:51;94986.59;;;0.97;98.44
6343;BME280;3204;42.698;23.298;2023-12-20T05:12:17;94982.31;;;0.96;97.99
6343;BME280;3204;42.698;23.298;2023-12-20T05:14:42;94987.53;;;0.86;98.10
6343;BME280;3204;42.698;23.298;2023-12-20T05:17:08;94985.94;;;0.85;97.52
6343;BME280;3204;42.698;23.298;2023-12-20T05:19:33;94987.25;;;0.82;97.86
6343;BME280;3204;42.698;23.298;2023-12-20T05:22:01;94984.81;;;0.81;98.23
6343;BME280;3204;42.698;23.298;2023-12-20T05:24:26;94990.75;;;0.88;97.66
6343;BME280;3204;42.698;23.298;2023-12-20T05:26:52;94973.06;;;0.82;97.35
6343;BME280;3204;42.698;23.298;2023-12-20T05:29:17;94973.25;;;0.75;97.70
6343;BME280;3204;42.698;23.298;2023-12-20T05:31:43;94976.63;;;0.66;97.79
6343;BME280;3204;42.698;23.298;2023-12-20T05:34:08;94966.41;;;0.63;97.77
6343;BME280;3204;42.698;23.298;2023-12-20T05:36:34;94964.34;;;0.65;96.81
6343;BME280;3204;42.698;23.298;2023-12-20T05:39:00;94971.03;;;0.67;97.61
6343;BME280;3204;42.698;23.298;2023-12-20T05:41:25;94966.72;;;0.66;97.30
6343;BME280;3204;42.698;23.298;2023-12-20T05:43:50;94972.22;;;0.76;96.96
6343;BME280;3204;42.698;23.298;2023-12-20T05:46:16;94957.22;;;0.53;96.75
6343;BME280;3204;42.698;23.298;2023-12-20T05:48:41;94959.75;;;0.43;97.29
6343;BME280;3204;42.698;23.298;2023-12-20T05:51:06;94957.59;;;0.41;98.02
6343;BME280;3204;42.698;23.298;2023-12-20T05:53:32;94960.66;;;0.49;97.37
6343;BME280;3204;42.698;23.298;2023-12-20T05:55:57;94955.75;;;0.63;97.08
6343;BME280;3204;42.698;23.298;2023-12-20T05:58:22;94954.94;;;0.41;96.89
6343;BME280;3204;42.698;23.298;2023-12-20T06:00:48;94952.59;;;0.44;97.23
6343;BME280;3204;42.698;23.298;2023-12-20T06:03:14;94950.72;;;0.28;98.05
6343;BME280;3204;42.698;23.298;2023-12-20T06:05:39;94954.53;;;0.32;97.72
6343;BME280;3204;42.698;23.298;2023-12-20T06:08:05;94946.16;;;0.23;97.95
6343;BME280;3204;42.698;23.298;2023-12-20T06:10:30;94948.03;;;0.44;97.90
6343;BME280;3204;42.698;23.298;2023-12-20T06:12:56;94950.19;;;0.26;97.85
6343;BME280;3204;42.698;23.298;2023-12-20T06:15:22;94950.66;;;0.23;98.65
6343;BME280;3204;42.698;23.298;2023-12-20T06:17:48;94957.44;;;0.30;99.03
6343;BME280;3204;42.698;23.298;2023-12-20T06:20:13;94952.94;;;0.31;98.41
6343;BME280;3204;42.698;23.298;2023-12-20T06:22:39;94951.00;;;0.27;98.77
6343;BME280;3204;42.698;23.298;2023-12-20T06:25:05;94953.59;;;0.22;98.79
6343;BME280;3204;42.698;23.298;2023-12-20T06:27:30;94956.34;;;0.27;99.27
6343;BME280;3204;42.698;23.298;2023-12-20T06:29:57;94953.91;;;0.25;98.82
6343;BME280;3204;42.698;23.298;2023-12-20T06:32:23;94951.38;;;0.35;99.02
6343;BME280;3204;42.698;23.298;2023-12-20T06:34:48;94956.00;;;0.23;98.79
6343;BME280;3204;42.698;23.298;2023-12-20T06:37:14;94954.16;;;0.23;99.15
6343;BME280;3204;42.698;23.298;2023-12-20T06:39:40;94952.19;;;0.35;98.52
6343;BME280;3204;42.698;23.298;2023-12-20T06:42:05;94944.50;;;0.39;98.55
6343;BME280;3204;42.698;23.298;2023-12-20T06:44:31;94943.88;;;0.53;98.73
6343;BME280;3204;42.698;23.298;2023-12-20T06:46:57;94949.47;;;0.52;97.74
6343;BME280;3204;42.698;23.298;2023-12-20T06:49:22;94945.78;;;0.53;97.26
6343;BME280;3204;42.698;23.298;2023-12-20T06:51:48;94936.41;;;0.51;97.65
6343;BME280;3204;42.698;23.298;2023-12-20T06:54:13;94933.72;;;0.51;97.17
6343;BME280;3204;42.698;23.298;2023-12-20T06:56:38;94930.25;;;0.50;97.46
6343;BME280;3204;42.698;23.298;2023-12-20T06:59:04;94925.97;;;0.49;97.24
6343;BME280;3204;42.698;23.298;2023-12-20T07:01:29;94932.81;;;0.62;97.36
6343;BME280;3204;42.698;23.298;2023-12-20T07:03:54;94930.56;;;0.53;97.19
6343;BME280;3204;42.698;23.298;2023-12-20T07:06:20;94922.31;;;0.55;97.01
6343;BME280;3204;42.698;23.298;2023-12-20T07:08:45;94917.28;;;0.58;97.50
6343;BME280;3204;42.698;23.298;2023-12-20T07:11:11;94917.91;;;0.66;97.31
6343;BME280;3204;42.698;23.298;2023-12-20T07:13:37;94925.78;;;0.77;97.27
6343;BME280;3204;42.698;23.298;2023-12-20T07:16:02;94922.94;;;0.84;96.39
6343;BME280;3204;42.698;23.298;2023-12-20T07:18:28;94920.22;;;0.79;96.83
6343;BME280;3204;42.698;23.298;2023-12-20T07:20:53;94916.53;;;0.85;97.13
6343;BME280;3204;42.698;23.298;2023-12-20T07:23:20;94915.72;;;0.84;97.38
6343;BME280;3204;42.698;23.298;2023-12-20T07:25:45;94916.41;;;0.96;97.31
6343;BME280;3204;42.698;23.298;2023-12-20T07:28:11;94913.97;;;0.95;97.16
6343;BME280;3204;42.698;23.298;2023-12-20T07:30:36;94906.50;;;0.97;96.91
6343;BME280;3204;42.698;23.298;2023-12-20T07:33:02;94899.41;;;0.81;96.95
6343;BME280;3204;42.698;23.298;2023-12-20T07:35:28;94902.94;;;0.86;97.00
6343;BME280;3204;42.698;23.298;2023-12-20T07:37:53;94901.28;;;1.07;96.96
6343;BME280;3204;42.698;23.298;2023-12-20T07:40:19;94903.56;;;1.20;95.80
6343;BME280;3204;42.698;23.298;2023-12-20T07:42:44;94903.84;;;0.97;95.81
6343;BME280;3204;42.698;23.298;2023-12-20T07:45:09;94909.72;;;0.94;97.34
6343;BME280;3204;42.698;23.298;2023-12-20T07:47:36;94910.25;;;0.96;97.49
6343;BME280;3204;42.698;23.298;2023-12-20T07:50:02;94907.38;;;1.02;97.49
6343;BME280;3204;42.698;23.298;2023-12-20T07:52:28;94901.03;;;1.08;97.52
6343;BME280;3204;42.698;23.298;2023-12-20T07:54:54;94901.91;;;1.14;96.91
6343;BME280;3204;42.698;23.298;2023-12-20T07:57:20;94884.13;;;1.24;96.75
6343;BME280;3204;42.698;23.298;2023-12-20T07:59:45;94904.94;;;1.54;97.62
6343;BME280;3204;42.698;23.298;2023-12-20T08:02:10;94908.59;;;1.43;96.73
6343;BME280;3204;42.698;23.298;2023-12-20T08:04:36;94900.97;;;1.30;97.19
6343;BME280;3204;42.698;23.298;2023-12-20T08:07:01;94889.03;;;1.37;96.63
6343;BME280;3204;42.698;23.298;2023-12-20T08:09:27;94896.94;;;1.54;95.95
6343;BME280;3204;42.698;23.298;2023-12-20T08:11:52;94901.94;;;1.45;95.25
6343;BME280;3204;42.698;23.298;2023-12-20T08:14:18;94892.06;;;1.46;96.43
6343;BME280;3204;42.698;23.298;2023-12-20T08:16:43;94886.94;;;1.71;95.12
6343;BME280;3204;42.698;23.298;2023-12-20T08:19:08;94876.44;;;1.64;93.92
6343;BME280;3204;42.698;23.298;2023-12-20T08:21:34;94879.75;;;1.45;94.76
6343;BME280;3204;42.698;23.298;2023-12-20T08:23:59;94874.31;;;1.35;95.27
6343;BME280;3204;42.698;23.298;2023-12-20T08:26:26;94884.59;;;1.48;94.92
6343;BME280;3204;42.698;23.298;2023-12-20T08:28:51;94877.66;;;1.47;94.98
6343;BME280;3204;42.698;23.298;2023-12-20T08:31:17;94869.06;;;1.45;96.26
6343;BME280;3204;42.698;23.298;2023-12-20T08:33:47;94873.50;;;1.61;94.82
6343;BME280;3204;42.698;23.298;2023-12-20T08:36:13;94858.25;;;1.61;95.09
6343;BME280;3204;42.698;23.298;2023-12-20T08:38:39;94860.47;;;1.69;94.80
6343;BME280;3204;42.698;23.298;2023-12-20T08:41:05;94855.88;;;1.65;94.59
6343;BME280;3204;42.698;23.298;2023-12-20T08:43:34;94853.63;;;1.52;95.77
6343;BME280;3204;42.698;23.298;2023-12-20T08:46:00;94849.31;;;1.46;95.98
6343;BME280;3204;42.698;23.298;2023-12-20T08:48:25;94847.13;;;1.38;96.54
6343;BME280;3204;42.698;23.298;2023-12-20T08:50:51;94834.97;;;1.57;95.50
6343;BME280;3204;42.698;23.298;2023-12-20T08:53:18;94848.34;;;1.57;96.23
6343;BME280;3204;42.698;23.298;2023-12-20T08:55:44;94840.06;;;1.58;96.84
6343;BME280;3204;42.698;23.298;2023-12-20T08:58:09;94835.41;;;1.80;96.52
6343;BME280;3204;42.698;23.298;2023-12-20T09:00:35;94820.22;;;1.86;95.75
6343;BME280;3204;42.698;23.298;2023-12-20T09:03:03;94822.09;;;1.85;94.17
6343;BME280;3204;42.698;23.298;2023-12-20T09:05:28;94814.78;;;1.71;94.32
6343;BME280;3204;42.698;23.298;2023-12-20T09:07:54;94805.47;;;1.42;95.63
6343;BME280;3204;42.698;23.298;2023-12-20T09:10:19;94793.47;;;1.44;96.22
6343;BME280;3204;42.698;23.298;2023-12-20T09:12:54;94788.13;;;1.44;96.97
6343;BME280;3204;42.698;23.298;2023-12-20T09:15:24;94780.06;;;1.76;96.77
6343;BME280;3204;42.698;23.298;2023-12-20T09:17:50;94777.81;;;1.63;95.76
6343;BME280;3204;42.698;23.298;2023-12-20T09:20:16;94767.47;;;1.71;96.52
6343;BME280;3204;42.698;23.298;2023-12-20T09:22:41;94754.97;;;1.87;95.92
6343;BME280;3204;42.698;23.298;2023-12-20T09:25:07;94746.25;;;2.06;95.92
6343;BME280;3204;42.698;23.298;2023-12-20T09:27:33;94747.31;;;2.05;95.49
6343;BME280;3204;42.698;23.298;2023-12-20T09:29:58;94744.91;;;2.04;96.12
6343;BME280;3204;42.698;23.298;2023-12-20T09:32:24;94736.28;;;1.92;95.78
6343;BME280;3204;42.698;23.298;2023-12-20T09:34:49;94739.59;;;2.09;96.06
6343;BME280;3204;42.698;23.298;2023-12-20T09:37:14;94732.66;;;2.13;95.34
6343;BME280;3204;42.698;23.298;2023-12-20T09:39:40;94727.34;;;2.33;94.93
6343;BME280;3204;42.698;23.298;2023-12-20T09:42:06;94712.88;;;2.24;95.32
6343;BME280;3204;42.698;23.298;2023-12-20T09:44:32;94716.34;;;2.19;95.09
6343;BME280;3204;42.698;23.298;2023-12-20T09:47:02;94711.00;;;2.19;95.92
6343;BME280;3204;42.698;23.298;2023-12-20T09:49:28;94707.03;;;2.27;94.94
6343;BME280;3204;42.698;23.298;2023-12-20T09:51:55;94703.53;;;2.26;94.79
6343;BME280;3204;42.698;23.298;2023-12-20T09:54:22;94700.59;;;2.33;95.12
6343;BME280;3204;42.698;23.298;2023-12-20T09:56:48;94693.69;;;2.47;95.15
6343;BME280;3204;42.698;23.298;2023-12-20T09:59:14;94697.97;;;2.48;94.04
6343;BME280;3204;42.698;23.298;2023-12-20T10:01:40;94695.84;;;2.50;93.93
6343;BME280;3204;42.698;23.298;2023-12-20T10:04:07;94690.47;;;2.45;94.74
6343;BME280;3204;42.698;23.298;2023-12-20T10:06:35;94692.09;;;2.61;94.38
6343;BME280;3204;42.698;23.298;2023-12-20T10:09:01;94686.75;;;2.71;93.45
6343;BME280;3204;42.698;23.298;2023-12-20T10:11:26;94683.81;;;2.72;93.95
6343;BME280;3204;42.698;23.298;2023-12-20T10:13:58;94675.78;;;2.82;93.92
6343;BME280;3204;42.698;23.298;2023-12-20T10:16:25;94676.31;;;2.84;94.07
6343;BME280;3204;42.698;23.298;2023-12-20T10:18:52;94671.75;;;2.95;92.76
6343;BME280;3204;42.698;23.298;2023-12-20T10:21:18;94659.19;;;2.80;92.52
6343;BME280;3204;42.698;23.298;2023-12-20T10:23:43;94654.38;;;2.92;93.05
6343;BME280;3204;42.698;23.298;2023-12-20T10:26:09;94653.28;;;3.03;93.05
6343;BME280;3204;42.698;23.298;2023-12-20T10:28:35;94643.38;;;3.09;92.56
6343;BME280;3204;42.698;23.298;2023-12-20T10:31:01;94649.25;;;3.31;92.46
6343;BME280;3204;42.698;23.298;2023-12-20T10:33:30;94646.81;;;3.34;91.76
6343;BME280;3204;42.698;23.298;2023-12-20T10:35:59;94638.22;;;3.27;91.17
6343;BME280;3204;42.698;23.298;2023-12-20T10:38:24;94631.56;;;3.15;91.45
6343;BME280;3204;42.698;23.298;2023-12-20T10:40:54;94627.28;;;3.09;92.42
6343;BME280;3204;42.698;23.298;2023-12-20T10:43:22;94627.56;;;2.97;92.86
6343;BME280;3204;42.698;23.298;2023-12-20T10:45:48;94607.47;;;3.05;93.54
6343;BME280;3204;42.698;23.298;2023-12-20T10:48:14;94611.22;;;3.09;93.09
6343;BME280;3204;42.698;23.298;2023-12-20T10:50:41;94606.13;;;3.07;92.56
6343;BME280;3204;42.698;23.298;2023-12-20T10:53:07;94599.16;;;3.16;93.15
6343;BME280;3204;42.698;23.298;2023-12-20T10:55:32;94603.16;;;3.19;91.79
6343;BME280;3204;42.698;23.298;2023-12-20T10:58:07;94599.44;;;3.10;92.11
6343;BME280;3204;42.698;23.298;2023-12-20T11:00:37;94598.63;;;3.19;91.96
6343;BME280;3204;42.698;23.298;2023-12-20T11:03:05;94587.03;;;3.39;91.52
6343;BME280;3204;42.698;23.298;2023-12-20T11:05:47;94587.31;;;3.42;91.29
6343;BME280;3204;42.698;23.298;2023-12-20T11:11:07;94570.72;;;3.30;91.61
6343;BME280;3204;42.698;23.298;2023-12-20T11:13:57;94565.34;;;3.35;91.62
6343;BME280;3204;42.698;23.298;2023-12-20T11:16:23;94559.19;;;3.25;92.90
6343;BME280;3204;42.698;23.298;2023-12-20T11:18:50;94564.06;;;3.13;91.79
6343;BME280;3204;42.698;23.298;2023-12-20T11:21:16;94559.75;;;3.27;92.05
6343;BME280;3204;42.698;23.298;2023-12-20T11:23:42;94553.28;;;3.38;91.86
6343;BME280;3204;42.698;23.298;2023-12-20T11:26:07;94543.69;;;3.22;91.69
6343;BME280;3204;42.698;23.298;2023-12-20T11:28:33;94542.09;;;3.11;92.41
6343;BME280;3204;42.698;23.298;2023-12-20T11:31:00;94531.44;;;2.96;93.36
6343;BME280;3204;42.698;23.298;2023-12-20T11:33:30;94533.56;;;3.04;92.42
6343;BME280;3204;42.698;23.298;2023-12-20T11:35:56;94524.72;;;2.98;92.99
6343;BME280;3204;42.698;23.298;2023-12-20T11:38:22;94512.97;;;2.94;94.03
6343;BME280;3204;42.698;23.298;2023-12-20T11:40:51;94503.59;;;2.87;94.15
6343;BME280;3204;42.698;23.298;2023-12-20T11:43:37;94503.63;;;2.82;95.11
6343;BME280;3204;42.698;23.298;2023-12-20T11:46:08;94505.72;;;2.95;95.29
6343;BME280;3204;42.698;23.298;2023-12-20T11:48:37;94500.03;;;3.16;93.87
6343;BME280;3204;42.698;23.298;2023-12-20T11:51:09;94494.94;;;3.15;93.48
6343;BME280;3204;42.698;23.298;2023-12-20T11:53:35;94486.34;;;3.23;93.97
6343;BME280;3204;42.698;23.298;2023-12-20T11:56:03;94479.94;;;3.19;94.04
6343;BME280;3204;42.698;23.298;2023-12-20T11:58:28;94464.88;;;3.33;94.58
6343;BME280;3204;42.698;23.298;2023-12-20T12:00:55;94469.16;;;3.29;94.20
6343;BME280;3204;42.698;23.298;2023-12-20T12:03:20;94460.31;;;3.33;93.94
6343;BME280;3204;42.698;23.298;2023-12-20T12:05:47;94453.09;;;3.29;94.51
6343;BME280;3204;42.698;23.298;2023-12-20T12:08:13;94453.66;;;3.26;94.64
6343;BME280;3204;42.698;23.298;2023-12-20T12:10:38;94443.97;;;3.35;95.37
6343;BME280;3204;42.698;23.298;2023-12-20T12:13:04;94440.19;;;3.41;95.64
6343;BME280;3204;42.698;23.298;2023-12-20T12:15:29;94431.56;;;3.44;95.24
6343;BME280;3204;42.698;23.298;2023-12-20T12:17:56;94441.22;;;3.45;94.99
6343;BME280;3204;42.698;23.298;2023-12-20T12:20:22;94426.50;;;3.42;95.12
6343;BME280;3204;42.698;23.298;2023-12-20T12:23:06;94422.25;;;3.31;95.46
6343;BME280;3204;42.698;23.298;2023-12-20T12:29:02;94420.28;;;3.47;94.55
6343;BME280;3204;42.698;23.298;2023-12-20T12:31:27;94421.41;;;3.41;95.29
6343;BME280;3204;42.698;23.298;2023-12-20T12:33:53;94429.16;;;3.47;94.86
6343;BME280;3204;42.698;23.298;2023-12-20T12:36:18;94425.16;;;3.45;94.75
6343;BME280;3204;42.698;23.298;2023-12-20T12:38:44;94420.56;;;3.45;94.81
6343;BME280;3204;42.698;23.298;2023-12-20T12:41:09;94420.34;;;3.42;95.67
6343;BME280;3204;42.698;23.298;2023-12-20T12:43:35;94418.16;;;3.44;96.05
6343;BME280;3204;42.698;23.298;2023-12-20T12:46:01;94405.25;;;3.51;95.36
6343;BME280;3204;42.698;23.298;2023-12-20T12:48:26;94410.53;;;3.66;94.96
6343;BME280;3204;42.698;23.298;2023-12-20T12:50:53;94408.03;;;3.74;94.31
6343;BME280;3204;42.698;23.298;2023-12-20T12:53:19;94406.63;;;3.87;93.91
6343;BME280;3204;42.698;23.298;2023-12-20T12:55:45;94398.19;;;3.65;94.00
6343;BME280;3204;42.698;23.298;2023-12-20T12:58:11;94399.59;;;3.57;94.86
6343;BME280;3204;42.698;23.298;2023-12-20T13:00:36;94395.63;;;3.50;95.57
6343;BME280;3204;42.698;23.298;2023-12-20T13:03:02;94396.47;;;3.40;96.46
6343;BME280;3204;42.698;23.298;2023-12-20T13:05:28;94402.56;;;3.56;96.06
6343;BME280;3204;42.698;23.298;2023-12-20T13:07:54;94396.13;;;3.52;95.98
6343;BME280;3204;42.698;23.298;2023-12-20T13:10:20;94398.38;;;3.40;95.97
6343;BME280;3204;42.698;23.298;2023-12-20T13:12:45;94399.00;;;3.27;96.48
6343;BME280;3204;42.698;23.298;2023-12-20T13:15:11;94396.84;;;3.24;96.98
6343;BME280;3204;42.698;23.298;2023-12-20T13:17:36;94389.41;;;3.16;97.34
6343;BME280;3204;42.698;23.298;2023-12-20T13:20:02;94393.63;;;3.27;97.38
6343;BME280;3204;42.698;23.298;2023-12-20T13:22:28;94386.16;;;3.19;97.63